Time;durP1;ratioP1;P1;durP2;ratioP2;P2;SDS_P1;SDS_P2;PMS_P1;PMS_P2;Temp;Humidity;BMP_temperature;BMP_pressure;BME280_temperature;BME280_humidity;BME280_pressure;Samples;Min_cycle;Max_cycle;Signal;HPM_P1;HPM_P2
2022/10/01 00:02:06;;;;;;;4.25;3.47;;;;;;;8.31;100.00;154617.22;4885527;29;20044;-71
2022/10/01 00:04:37;;;;;;;7.53;3.40;;;;;;;8.34;100.00;154623.59;4894613;29;20040;-71
2022/10/01 00:07:08;;;;;;;6.72;3.42;;;;;;;8.35;100.00;154627.44;4890205;29;20478;-71
2022/10/01 00:09:33;;;;;;;6.45;3.38;;;;;;;8.30;100.00;154614.63;4910330;29;20111;-72
2022/10/01 00:11:59;;;;;;;5.63;3.30;;;;;;;8.41;100.00;154641.53;4878698;29;20462;-71
2022/10/01 00:14:28;;;;;;;6.13;3.45;;;;;;;8.31;100.00;154615.94;4910902;29;20375;-72
2022/10/01 00:16:54;;;;;;;5.75;3.50;;;;;;;8.31;100.00;154617.22;4915771;29;20382;-72
2022/10/01 00:19:20;;;;;;;6.45;3.35;;;;;;;8.35;100.00;154627.44;4905038;29;21028;-72
2022/10/01 00:21:46;;;;;;;4.90;3.00;;;;;;;8.40;100.00;154639.00;4886754;29;20042;-71
2022/10/01 00:24:13;;;;;;;6.50;3.83;;;;;;;8.35;100.00;154627.44;4890577;29;20512;-71
2022/10/01 00:26:40;;;;;;;4.65;3.30;;;;;;;8.34;100.00;154623.59;4885294;29;20122;-71
2022/10/01 00:29:13;;;;;;;5.95;3.45;;;;;;;8.36;100.00;154630.03;4908316;29;20036;-72
2022/10/01 00:31:41;;;;;;;3.58;3.10;;;;;;;8.34;100.00;154623.59;4895291;29;20494;-72
2022/10/01 00:34:10;;;;;;;6.50;3.58;;;;;;;8.34;100.00;154624.91;4913685;29;20191;-71
2022/10/01 00:36:36;;;;;;;7.18;3.25;;;;;;;8.33;100.00;154622.34;4909346;29;20039;-71
2022/10/01 00:39:02;;;;;;;4.25;3.20;;;;;;;8.33;100.00;154622.34;4915335;29;20776;-72
2022/10/01 00:41:30;;;;;;;4.10;2.92;;;;;;;8.41;100.00;154640.28;4914691;29;20047;-72
2022/10/01 00:44:00;;;;;;;6.95;3.38;;;;;;;8.52;100.00;154669.78;4882213;29;20052;-72
2022/10/01 00:46:40;;;;;;;6.70;3.13;;;;;;;8.44;100.00;154647.97;4880694;29;20028;-71
2022/10/01 00:49:14;;;;;;;5.88;3.50;;;;;;;8.51;100.00;154667.25;4913953;29;20058;-72
2022/10/01 00:51:45;;;;;;;6.53;3.55;;;;;;;8.54;100.00;154673.63;4899313;29;20122;-72
2022/10/01 00:54:41;;;;;;;5.47;3.38;;;;;;;8.52;100.00;154668.50;4892115;29;20055;-71
2022/10/01 00:57:07;;;;;;;5.93;3.10;;;;;;;8.42;100.00;154644.19;4912630;29;20044;-71
2022/10/01 00:59:35;;;;;;;6.32;3.30;;;;;;;8.36;100.00;154628.72;4893243;29;20158;-72
2022/10/01 01:02:00;;;;;;;5.45;3.70;;;;;;;8.30;100.00;154614.63;4917144;29;20035;-72
2022/10/01 01:04:27;;;;;;;6.68;3.63;;;;;;;8.33;100.00;154622.34;4892746;29;20051;-72
2022/10/01 01:06:57;;;;;;;6.80;3.45;;;;;;;8.30;100.00;154614.63;4897295;29;20477;-72
2022/10/01 01:09:28;;;;;;;3.78;3.00;;;;;;;8.35;100.00;154627.44;4907491;29;20043;-73
2022/10/01 01:12:00;;;;;;;5.57;3.72;;;;;;;8.43;100.00;154646.72;4891138;29;20797;-73
2022/10/01 01:14:37;;;;;;;5.32;3.53;;;;;;;8.35;100.00;154627.44;4893651;29;20131;-72
2022/10/01 01:17:12;;;;;;;5.25;3.85;;;;;;;8.37;100.00;154632.56;4884618;29;20040;-73
2022/10/01 01:19:50;;;;;;;3.88;3.47;;;;;;;8.35;100.00;154626.19;4875380;29;20036;-73
2022/10/01 01:22:23;;;;;;;4.13;3.33;;;;;;;8.35;100.00;154626.19;4917370;29;20161;-72
2022/10/01 01:24:50;;;;;;;;;;;;;;;8.36;100.00;154628.72;4918329;29;20076;-72
2022/10/01 01:27:21;;;;;;;6.88;3.50;;;;;;;8.40;100.00;154639.00;4916306;29;20005;-72
2022/10/01 01:30:13;;;;;;;6.00;3.30;;;;;;;8.53;100.00;154671.03;4893500;29;20060;-72
2022/10/01 01:32:40;;;;;;;;;;;;;;;8.48;100.00;154659.53;4909155;29;20042;-72
2022/10/01 01:35:13;;;;;;;3.67;3.25;;;;;;;8.54;100.00;154673.63;4915315;29;19923;-72
2022/10/01 01:37:45;;;;;;;4.00;3.40;;;;;;;8.52;100.00;154668.50;4913537;29;20032;-72
2022/10/01 01:40:14;;;;;;;4.93;3.03;;;;;;;8.57;100.00;154682.59;4906975;29;20481;-73
2022/10/01 01:42:42;;;;;;;7.00;2.90;;;;;;;8.61;100.00;154691.56;4907323;29;20553;-72
2022/10/01 01:45:15;;;;;;;4.93;2.90;;;;;;;8.61;100.00;154691.56;4916582;29;20232;-72
2022/10/01 01:47:42;;;;;;;6.00;2.80;;;;;;;8.62;100.00;154692.84;4894688;29;20596;-73
2022/10/01 01:50:10;;;;;;;4.22;2.75;;;;;;;8.73;100.00;154722.31;4897852;29;20152;-72
2022/10/01 01:52:37;;;;;;;6.03;3.05;;;;;;;8.74;100.00;154723.63;4915384;29;20585;-72
2022/10/01 01:55:06;;;;;;;7.50;3.20;;;;;;;8.74;100.00;154724.88;4905822;29;20043;-72
2022/10/01 01:57:33;;;;;;;4.97;2.90;;;;;;;8.82;100.00;154744.09;4934625;29;20059;-72
2022/10/01 01:59:59;;;;;;;6.47;2.90;;;;;;;8.89;100.00;154762.06;4911982;29;20438;-72
2022/10/01 02:02:32;;;;;;;3.63;2.65;;;;;;;8.96;100.00;154779.97;4897955;29;20048;-71
2022/10/01 02:04:59;;;;;;;;;;;;;;;8.99;100.00;154785.13;4916891;29;20648;-72
2022/10/01 02:07:51;;;;;;;9.70;2.50;;;;;;;8.98;100.00;154783.81;4919192;29;19927;-72
2022/10/01 02:10:51;;;;;;;5.75;2.90;;;;;;;8.93;100.00;154772.28;4912937;29;20060;-72
2022/10/01 02:13:45;;;;;;;6.45;2.50;;;;;;;8.95;100.00;154777.41;4920454;29;20565;-71
2022/10/01 02:16:54;;;;;;;8.65;2.80;;;;;;;9.00;100.00;154787.66;4914973;29;20086;-71
2022/10/01 02:19:34;;;;;;;3.72;2.55;;;;;;;8.87;100.00;154756.94;4825312;29;20044;-71
2022/10/01 02:22:10;;;;;;;4.22;2.80;;;;;;;8.85;100.00;154751.75;4840944;29;20045;-71
2022/10/01 02:24:38;;;;;;;5.05;3.08;;;;;;;8.83;100.00;154746.66;4904049;29;20044;-70
2022/10/01 02:27:16;;;;;;;5.47;3.00;;;;;;;8.91;100.00;154765.88;4924937;29;20039;-71
2022/10/01 02:29:46;;;;;;;5.70;3.28;;;;;;;8.82;100.00;154744.09;4914067;29;20040;-71
2022/10/01 02:32:14;;;;;;;5.18;2.80;;;;;;;8.76;100.00;154728.75;4899998;29;20036;-71
2022/10/01 02:34:42;;;;;;;6.60;3.05;;;;;;;8.79;100.00;154735.13;4908123;29;20044;-70
2022/10/01 02:37:10;;;;;;;8.57;3.00;;;;;;;8.75;100.00;154726.16;4909675;29;20034;-71
2022/10/01 02:39:40;;;;;;;6.00;3.45;;;;;;;8.71;100.00;154715.91;4903200;29;20040;-71
2022/10/01 02:42:09;;;;;;;6.75;3.33;;;;;;;8.77;100.00;154732.53;4908358;29;20064;-71
2022/10/01 02:44:39;;;;;;;7.85;3.20;;;;;;;8.73;100.00;154721.03;4915630;29;20032;-71
2022/10/01 02:47:15;;;;;;;4.75;2.90;;;;;;;8.79;100.00;154736.41;4902875;29;20099;-71
2022/10/01 02:49:41;;;;;;;3.88;3.03;;;;;;;8.79;100.00;154736.41;4891298;29;20040;-70
2022/10/01 02:52:22;;;;;;;4.68;2.85;;;;;;;8.75;100.00;154726.16;4906723;29;20036;-71
2022/10/01 02:55:03;;;;;;;3.67;2.75;;;;;;;8.75;100.00;154727.44;4901950;29;20032;-71
2022/10/01 02:57:29;;;;;;;6.20;3.00;;;;;;;8.80;100.00;154737.66;4912547;29;20028;-70
2022/10/01 02:59:58;;;;;;;5.47;2.78;;;;;;;8.86;100.00;154754.34;4907355;29;20401;-71
2022/10/01 03:02:26;;;;;;;3.67;2.85;;;;;;;8.84;100.00;154749.22;4917294;29;20068;-71
2022/10/01 03:04:56;;;;;;;6.78;2.90;;;;;;;8.80;100.00;154738.97;4910864;29;20028;-71
2022/10/01 03:07:23;;;;;;;6.25;3.05;;;;;;;8.82;100.00;154744.09;4899622;29;20036;-71
2022/10/01 03:09:49;;;;;;;5.30;2.80;;;;;;;8.87;100.00;154756.94;4900596;29;20063;-71
2022/10/01 03:12:16;;;;;;;3.55;2.60;;;;;;;8.84;100.00;154749.22;4878859;29;20050;-72
2022/10/01 03:14:44;;;;;;;4.30;2.70;;;;;;;8.89;100.00;154760.75;4920912;29;20078;-71
2022/10/01 03:17:10;;;;;;;4.28;2.75;;;;;;;8.89;100.00;154760.75;4909177;29;20044;-71
2022/10/01 03:19:37;;;;;;;4.30;2.78;;;;;;;8.89;100.00;154760.75;4899217;29;20055;-71
2022/10/01 03:22:02;;;;;;;3.47;2.50;;;;;;;8.93;100.00;154772.28;4888365;29;20497;-71
2022/10/01 03:24:28;;;;;;;4.93;2.92;;;;;;;8.94;100.00;154773.56;4904142;29;20048;-71
2022/10/01 03:26:55;;;;;;;5.28;2.42;;;;;;;9.06;100.00;154804.34;4914816;29;20410;-71
2022/10/01 03:29:22;;;;;;;6.85;2.40;;;;;;;9.20;100.00;154838.94;4877555;29;20044;-71
2022/10/01 03:31:47;;;;;;;4.90;2.20;;;;;;;9.14;100.00;154824.84;4895107;29;20111;-71
2022/10/01 03:34:13;;;;;;;6.38;2.50;;;;;;;9.16;100.00;154828.69;4894962;29;20035;-71
2022/10/01 03:36:39;;;;;;;3.75;2.50;;;;;;;9.30;100.00;154864.56;4911407;29;20064;-71
2022/10/01 03:39:04;;;;;;;6.50;2.20;;;;;;;9.18;100.00;154833.81;4910958;29;20036;-71
2022/10/01 03:41:30;;;;;;;6.10;2.25;;;;;;;9.24;100.00;154849.19;4896631;29;20044;-70
2022/10/01 03:43:56;;;;;;;5.95;2.28;;;;;;;9.25;100.00;154851.78;4878475;29;20072;-70
2022/10/01 03:46:21;;;;;;;3.47;2.33;;;;;;;9.20;100.00;154837.66;4896025;29;20048;-70
2022/10/01 03:48:48;;;;;;;5.07;2.20;;;;;;;9.24;100.00;154849.19;4898073;29;20036;-71
2022/10/01 03:51:14;;;;;;;5.03;2.30;;;;;;;9.39;100.00;154886.38;4916238;29;20059;-70
2022/10/01 03:53:39;;;;;;;3.13;2.30;;;;;;;9.41;100.00;154890.22;4892488;29;20458;-72
2022/10/01 03:56:05;;;;;;;3.10;2.38;;;;;;;9.37;100.00;154881.25;4912116;29;20047;-72
2022/10/01 03:58:31;;;;;;;3.35;2.45;;;;;;;9.42;100.00;154894.06;4893742;29;20059;-72
2022/10/01 04:00:57;;;;;;;7.30;2.80;;;;;;;9.47;100.00;154905.59;4894235;29;20067;-70
2022/10/01 04:03:22;;;;;;;4.20;2.60;;;;;;;9.43;100.00;154896.59;4909542;29;20036;-71
2022/10/01 04:05:50;;;;;;;4.75;2.58;;;;;;;9.43;100.00;154895.34;4880363;29;20047;-71
2022/10/01 04:08:16;;;;;;;3.80;2.50;;;;;;;9.38;100.00;154883.81;4907707;29;20127;-71
2022/10/01 04:10:42;;;;;;;5.55;2.75;;;;;;;9.41;100.00;154890.22;4896520;29;20119;-72
2022/10/01 04:13:08;;;;;;;4.68;3.00;;;;;;;9.31;100.00;154867.13;4915243;29;20507;-73
2022/10/01 04:15:34;;;;;;;4.70;2.90;;;;;;;9.19;100.00;154835.09;4909817;29;20040;-73
2022/10/01 04:18:04;;;;;;;7.93;2.70;;;;;;;9.08;100.00;154809.47;4911284;29;20032;-72
2022/10/01 04:20:34;;;;;;;4.07;2.72;;;;;;;8.96;100.00;154778.69;4910482;29;20040;-72
2022/10/01 04:22:59;;;;;;;3.97;2.65;;;;;;;8.91;100.00;154767.19;4913934;29;20036;-72
2022/10/01 04:25:26;;;;;;;5.93;3.10;;;;;;;8.88;100.00;154759.47;4912841;29;20052;-72
2022/10/01 04:27:58;;;;;;;5.95;3.05;;;;;;;8.89;100.00;154760.75;4917097;29;20063;-72
2022/10/01 04:30:26;;;;;;;4.95;3.33;;;;;;;8.85;100.00;154751.75;4914820;29;20067;-73
2022/10/01 04:32:52;;;;;;;8.13;2.97;;;;;;;8.80;100.00;154737.66;4907527;29;20117;-72
2022/10/01 04:35:18;;;;;;;5.95;3.53;;;;;;;8.84;100.00;154747.97;4915989;29;20489;-72
2022/10/01 04:37:43;;;;;;;6.50;3.10;;;;;;;8.80;100.00;154737.66;4893763;29;20481;-73
2022/10/01 04:40:09;;;;;;;4.95;2.90;;;;;;;8.77;100.00;154731.28;4879229;29;20047;-72
2022/10/01 04:42:39;;;;;;;3.83;2.97;;;;;;;8.79;100.00;154735.13;4903207;29;20035;-72
2022/10/01 04:45:05;;;;;;;3.95;3.00;;;;;;;8.84;100.00;154747.97;4895966;29;20044;-73
2022/10/01 04:47:31;;;;;;;5.00;3.05;;;;;;;8.85;100.00;154750.50;4908743;29;20131;-73
2022/10/01 04:49:57;;;;;;;5.03;3.00;;;;;;;8.80;100.00;154737.66;4901411;29;20144;-73
2022/10/01 04:52:22;;;;;;;6.53;3.35;;;;;;;8.78;100.00;154733.84;4899382;29;20040;-71
2022/10/01 04:54:51;;;;;;;3.63;2.92;;;;;;;8.75;100.00;154726.16;4895231;29;20446;-72
2022/10/01 04:57:20;;;;;;;3.83;2.95;;;;;;;8.80;100.00;154738.97;4873367;29;20071;-70
2022/10/01 04:59:46;;;;;;;5.22;2.88;;;;;;;8.72;100.00;154719.78;4895493;29;20046;-72
2022/10/01 05:02:13;;;;;;;6.70;3.78;;;;;;;8.76;100.00;154730.00;4897484;29;20561;-72
2022/10/01 05:04:38;;;;;;;5.20;3.50;;;;;;;8.69;100.00;154710.78;4923474;29;20040;-71
2022/10/01 05:07:04;;;;;;;4.05;3.05;;;;;;;8.72;100.00;154718.44;4919892;29;20094;-72
2022/10/01 05:09:30;;;;;;;4.97;3.22;;;;;;;8.65;100.00;154701.81;4905109;29;20066;-72
2022/10/01 05:11:56;;;;;;;4.40;3.53;;;;;;;8.63;100.00;154695.44;4896946;29;20769;-71
2022/10/01 05:14:21;;;;;;;6.38;3.40;;;;;;;8.59;100.00;154686.44;4913403;29;20040;-71
2022/10/01 05:16:47;;;;;;;4.25;3.13;;;;;;;8.60;100.00;154687.72;4916284;29;20110;-72
2022/10/01 05:19:13;;;;;;;4.00;3.20;;;;;;;8.61;100.00;154690.25;4904360;29;20663;-71
2022/10/01 05:21:39;;;;;;;5.25;3.22;;;;;;;8.52;100.00;154668.50;4922549;29;20039;-71
2022/10/01 05:24:04;;;;;;;5.82;3.15;;;;;;;8.57;100.00;154681.34;4891597;29;20039;-71
2022/10/01 05:26:31;;;;;;;7.65;3.85;;;;;;;8.56;100.00;154678.75;4896707;29;20035;-71
2022/10/01 05:28:59;;;;;;;7.57;4.22;;;;;;;8.59;100.00;154686.44;4912300;29;20114;-71
2022/10/01 05:31:27;;;;;;;7.10;3.67;;;;;;;8.53;100.00;154672.38;4920863;29;20098;-71
2022/10/01 05:33:53;;;;;;;8.13;4.05;;;;;;;8.57;100.00;154682.59;4901429;29;20025;-71
2022/10/01 05:36:18;;;;;;;4.63;3.50;;;;;;;8.56;100.00;154678.75;4898294;29;20070;-72
2022/10/01 05:38:47;;;;;;;8.45;3.42;;;;;;;8.53;100.00;154672.38;4899169;29;20050;-71
2022/10/01 05:41:12;;;;;;;6.38;3.95;;;;;;;8.58;100.00;154683.88;4914463;29;20064;-70
2022/10/01 05:43:38;;;;;;;5.53;3.58;;;;;;;8.60;100.00;154687.72;4928845;29;20233;-71
2022/10/01 05:46:04;;;;;;;3.78;3.45;;;;;;;8.55;100.00;154677.47;4916304;29;20389;-71
2022/10/01 05:48:35;;;;;;;5.80;3.53;;;;;;;8.55;100.00;154676.16;4905301;29;20040;-71
2022/10/01 05:51:05;;;;;;;4.80;3.63;;;;;;;8.49;100.00;154660.81;4903926;29;20698;-71
2022/10/01 05:53:31;;;;;;;7.10;3.72;;;;;;;8.52;100.00;154669.78;4920621;29;20036;-71
2022/10/01 05:56:03;;;;;;;9.43;4.18;;;;;;;8.57;100.00;154681.34;4920208;29;20156;-71
2022/10/01 05:58:29;;;;;;;8.45;3.97;;;;;;;8.53;100.00;154672.38;4907414;29;20098;-71
2022/10/01 06:00:54;;;;;;;9.73;4.40;;;;;;;8.50;100.00;154663.38;4884123;29;20160;-71
2022/10/01 06:03:20;;;;;;;5.43;3.88;;;;;;;8.52;100.00;154668.50;4902639;29;20264;-71
2022/10/01 06:05:46;;;;;;;6.53;4.63;;;;;;;8.47;100.00;154656.94;4890590;29;20071;-70
2022/10/01 06:08:12;;;;;;;8.73;4.80;;;;;;;8.48;100.00;154659.53;4921693;29;20040;-71
2022/10/01 06:10:38;;;;;;;9.35;4.25;;;;;;;8.44;100.00;154649.28;4920736;29;20036;-70
2022/10/01 06:13:04;;;;;;;6.65;4.22;;;;;;;8.55;100.00;154677.47;4910577;29;20501;-71
2022/10/01 06:15:38;;;;;;;5.82;4.50;;;;;;;8.53;100.00;154671.03;4916127;29;20051;-72
2022/10/01 06:18:08;;;;;;;6.53;4.65;;;;;;;8.47;100.00;154656.94;4916888;29;20047;-70
2022/10/01 06:20:34;;;;;;;7.55;4.53;;;;;;;8.51;100.00;154667.25;4917007;29;20431;-71
2022/10/01 06:23:00;;;;;;;8.52;4.97;;;;;;;8.50;100.00;154664.66;4916472;29;20302;-72
2022/10/01 06:25:30;;;;;;;7.13;4.68;;;;;;;8.48;100.00;154659.53;4882192;29;20044;-71
2022/10/01 06:27:58;;;;;;;6.78;4.38;;;;;;;8.49;100.00;154662.06;4913218;29;20040;-71
2022/10/01 06:30:28;;;;;;;8.25;4.85;;;;;;;8.52;100.00;154669.78;4907469;29;20066;-72
2022/10/01 06:33:12;;;;;;;6.30;4.50;;;;;;;8.52;100.00;154668.50;4896930;29;20712;-71
2022/10/01 06:35:47;;;;;;;6.65;5.05;;;;;;;8.53;100.00;154671.03;4925194;29;20447;-71
2022/10/01 06:38:17;;;;;;;5.57;4.50;;;;;;;8.49;100.00;154662.06;4906002;29;20036;-72
2022/10/01 06:40:42;;;;;;;9.77;4.50;;;;;;;8.51;100.00;154665.94;4903913;29;20421;-72
2022/10/01 06:43:08;;;;;;;6.50;4.55;;;;;;;8.49;100.00;154662.06;4917362;29;20044;-71
2022/10/01 06:45:37;;;;;;;5.85;4.13;;;;;;;8.50;100.00;154664.66;4899636;29;20032;-72
2022/10/01 06:48:03;;;;;;;7.15;4.38;;;;;;;8.53;100.00;154672.38;4932740;29;20039;-71
2022/10/01 06:50:33;;;;;;;6.25;4.38;;;;;;;8.54;100.00;154673.63;4925553;29;20040;-72
2022/10/01 06:53:00;;;;;;;5.45;4.50;;;;;;;8.52;100.00;154669.78;4926156;29;20044;-72
2022/10/01 06:55:29;;;;;;;5.15;4.53;;;;;;;8.55;100.00;154676.16;4915834;29;20047;-71
2022/10/01 06:57:57;;;;;;;5.95;5.03;;;;;;;8.56;100.00;154678.75;4897512;29;21816;-71
2022/10/01 07:00:24;;;;;;;7.55;4.30;;;;;;;8.57;100.00;154682.59;4923525;29;20060;-71
2022/10/01 07:02:49;;;;;;;8.10;4.82;;;;;;;8.65;100.00;154701.81;4915047;29;20040;-71
2022/10/01 07:05:15;;;;;;;6.93;5.07;;;;;;;8.64;100.00;154699.22;4899477;29;20040;-72
2022/10/01 07:07:43;;;;;;;5.75;4.20;;;;;;;8.63;100.00;154695.44;4912291;29;20042;-71
2022/10/01 07:10:10;;;;;;;9.13;4.55;;;;;;;8.64;100.00;154699.22;4905768;29;20155;-71
2022/10/01 07:12:37;;;;;;;6.93;4.32;;;;;;;8.61;100.00;154691.56;4891872;29;20176;-71
2022/10/01 07:15:04;;;;;;;6.82;4.93;;;;;;;8.66;100.00;154704.34;4901620;29;20040;-71
2022/10/01 07:17:30;;;;;;;9.57;4.78;;;;;;;8.62;100.00;154694.09;4895730;29;20032;-70
2022/10/01 07:19:56;;;;;;;6.38;4.72;;;;;;;8.65;100.00;154700.56;4920995;29;20669;-71
2022/10/01 07:22:23;;;;;;;10.63;4.97;;;;;;;8.66;100.00;154703.09;4898013;29;20032;-72
2022/10/01 07:24:50;;;;;;;7.45;4.72;;;;;;;8.68;100.00;154708.22;4902655;29;20036;-71
2022/10/01 07:27:17;;;;;;;6.60;5.00;;;;;;;8.61;100.00;154690.25;4909812;29;20079;-71
2022/10/01 07:29:43;;;;;;;6.80;4.93;;;;;;;8.68;100.00;154708.22;4883753;29;20379;-72
2022/10/01 07:32:09;;;;;;;6.22;4.35;;;;;;;8.71;100.00;154715.91;4896979;29;20111;-71
2022/10/01 07:34:39;;;;;;;6.15;4.75;;;;;;;8.67;100.00;154706.94;4900516;29;20042;-71
2022/10/01 07:37:05;;;;;;;6.25;4.38;;;;;;;8.73;100.00;154721.03;4912347;29;20036;-71
2022/10/01 07:39:31;;;;;;;5.93;4.93;;;;;;;8.66;100.00;154703.09;4919829;29;20047;-71
2022/10/01 07:41:57;;;;;;;6.13;4.80;;;;;;;8.67;100.00;154705.66;4896920;29;20920;-72
2022/10/01 07:44:25;;;;;;;7.78;4.80;;;;;;;8.67;100.00;154706.94;4906096;29;20032;-72
2022/10/01 07:46:51;;;;;;;7.93;5.25;;;;;;;8.70;100.00;154713.31;4922987;29;20043;-71
2022/10/01 07:49:16;;;;;;;5.55;4.82;;;;;;;8.69;100.00;154710.78;4904974;29;20389;-72
2022/10/01 07:51:42;;;;;;;8.50;4.93;;;;;;;8.71;100.00;154715.91;4917316;29;20768;-71
2022/10/01 07:54:08;;;;;;;7.43;4.88;;;;;;;8.77;100.00;154732.53;4894705;29;20040;-71
2022/10/01 07:56:34;;;;;;;7.35;4.50;;;;;;;8.77;100.00;154731.28;4919482;29;20048;-72
2022/10/01 07:59:01;;;;;;;5.40;4.60;;;;;;;8.80;100.00;154738.97;4896074;29;20040;-72
2022/10/01 08:01:28;;;;;;;9.15;5.05;;;;;;;8.82;100.00;154744.09;4911553;29;20044;-72
2022/10/01 08:03:53;;;;;;;10.35;4.93;;;;;;;8.81;100.00;154741.53;4898014;29;20064;-72
2022/10/01 08:06:20;;;;;;;5.85;4.43;;;;;;;8.85;100.00;154751.75;4910978;29;20080;-72
2022/10/01 08:08:46;;;;;;;7.00;4.70;;;;;;;8.83;100.00;154745.38;4896938;29;20070;-71
2022/10/01 08:11:14;;;;;;;7.13;4.32;;;;;;;8.88;100.00;154758.19;4912305;29;20071;-71
2022/10/01 08:13:40;;;;;;;5.55;4.18;;;;;;;8.89;100.00;154760.75;4916049;29;20070;-71
2022/10/01 08:16:08;;;;;;;7.80;4.63;;;;;;;8.86;100.00;154754.34;4914547;29;20072;-72
2022/10/01 08:18:35;;;;;;;7.15;4.00;;;;;;;8.89;100.00;154762.06;4919050;29;20036;-71
2022/10/01 08:21:03;;;;;;;7.38;4.18;;;;;;;8.86;100.00;154753.06;4915688;29;20441;-72
2022/10/01 08:23:32;;;;;;;9.07;4.57;;;;;;;8.86;100.00;154753.06;4920280;29;20051;-72
2022/10/01 08:26:03;;;;;;;8.45;3.85;;;;;;;9.00;100.00;154787.66;4911841;29;20129;-72
2022/10/01 08:28:29;;;;;;;6.40;3.90;;;;;;;8.96;100.00;154778.69;4905586;29;20454;-72
2022/10/01 08:30:55;;;;;;;4.88;3.50;;;;;;;8.96;100.00;154778.69;4923381;29;20032;-72
2022/10/01 08:33:22;;;;;;;4.93;3.60;;;;;;;8.95;100.00;154777.41;4921739;29;20062;-72
2022/10/01 08:35:48;;;;;;;5.05;3.53;;;;;;;8.98;100.00;154783.81;4897014;29;20036;-72
2022/10/01 08:38:14;;;;;;;5.00;3.10;;;;;;;9.02;100.00;154792.78;4914039;29;20040;-72
2022/10/01 08:40:44;;;;;;;4.10;3.40;;;;;;;9.06;100.00;154803.03;4930379;29;20078;-71
2022/10/01 08:43:16;;;;;;;3.55;2.92;;;;;;;9.09;100.00;154812.00;4921586;29;20051;-72
2022/10/01 08:45:51;;;;;;;4.40;2.67;;;;;;;9.13;100.00;154820.97;4908766;29;20063;-72
2022/10/01 08:48:52;;;;;;;3.20;2.90;;;;;;;9.07;100.00;154806.88;4910890;29;20055;-72
2022/10/01 08:51:27;;;;;;;3.88;2.55;;;;;;;9.14;100.00;154823.56;4915132;29;20063;-71
2022/10/01 08:54:00;;;;;;;2.67;2.42;;;;;;;9.12;100.00;154819.72;4898659;29;20036;-72
2022/10/01 08:56:44;;;;;;;5.40;3.20;;;;;;;9.19;100.00;154836.34;4921132;29;20473;-70
2022/10/01 08:59:17;;;;;;;4.53;2.40;;;;;;;9.20;100.00;154837.66;4905809;29;20043;-72
2022/10/01 09:01:43;;;;;;;3.05;2.63;;;;;;;9.24;100.00;154847.91;4905246;29;20040;-72
2022/10/01 09:04:09;;;;;;;3.13;2.83;;;;;;;9.25;100.00;154850.44;4927680;29;20047;-72
2022/10/01 09:06:37;;;;;;;2.72;2.53;;;;;;;9.27;100.00;154856.88;4912954;29;20051;-72
2022/10/01 09:09:33;;;;;;;3.65;2.80;;;;;;;9.35;100.00;154876.13;4923411;29;20508;-71
2022/10/01 09:12:17;;;;;;;3.08;2.80;;;;;;;9.34;100.00;154874.84;4915911;29;20449;-72
2022/10/01 09:14:52;;;;;;;3.28;2.80;;;;;;;9.37;100.00;154881.25;4920496;29;20059;-71
2022/10/01 09:17:29;;;;;;;3.53;2.92;;;;;;;9.40;100.00;154888.94;4920833;29;20083;-72
2022/10/01 09:20:20;;;;;;;3.08;2.78;;;;;;;9.45;100.00;154901.72;4895315;29;20083;-72
2022/10/01 09:23:03;;;;;;;3.40;3.10;;;;;;;9.48;100.00;154909.44;4913150;29;20104;-72
2022/10/01 09:25:30;;;;;;;3.58;3.20;;;;;;;9.50;100.00;154913.31;4924778;29;20047;-72
2022/10/01 09:28:01;;;;;;;3.30;3.00;;;;;;;9.48;100.00;154908.19;4913248;29;20032;-71
2022/10/01 09:30:30;;;;;;;4.30;3.20;;;;;;;9.53;100.00;154922.28;4936140;29;20036;-72
2022/10/01 09:33:10;;;;;;;4.47;3.40;;;;;;;9.57;100.00;154929.94;4908502;29;20051;-72
2022/10/01 09:35:42;;;;;;;6.85;3.60;;;;;;;9.62;100.00;154944.03;4914886;29;20036;-72
2022/10/01 09:38:20;;;;;;;6.95;3.70;;;;;;;9.70;100.00;154964.59;4900780;29;20040;-71
2022/10/01 09:40:57;;;;;;;3.97;3.50;;;;;;;9.75;100.00;154977.38;4934653;28;20036;-72
2022/10/01 09:43:28;;;;;;;7.35;4.05;;;;;;;9.79;100.00;154985.09;4916783;29;20775;-71
2022/10/01 09:45:54;;;;;;;4.90;4.20;;;;;;;9.84;100.00;154997.94;4912197;29;20597;-72
2022/10/01 09:48:50;;;;;;;9.07;5.03;;;;;;;9.86;100.00;155003.06;4921945;29;20071;-72
2022/10/01 09:51:41;;;;;;;10.38;4.85;;;;;;;10.00;100.00;155037.66;4909102;29;20036;-72
2022/10/01 09:54:21;;;;;;;5.43;4.45;;;;;;;10.02;100.00;155044.09;4917372;29;20096;-72
2022/10/01 09:57:07;;;;;;;7.10;4.68;;;;;;;10.03;100.00;155045.38;4915553;29;20036;-72
2022/10/01 09:59:46;;;;;;;5.75;5.03;;;;;;;10.09;100.00;155060.75;4917369;29;20194;-72
2022/10/01 10:02:42;;;;;;;6.53;5.63;;;;;;;10.10;100.00;155063.34;4923465;29;20042;-72
2022/10/01 10:05:15;;;;;;;6.05;5.45;;;;;;;10.21;100.00;155090.22;4893127;29;20532;-72
2022/10/01 10:08:09;;;;;;;6.10;5.50;;;;;;;10.36;100.00;155127.50;4909466;29;20047;-72
2022/10/01 10:10:38;;;;;;;6.10;5.50;;;;;;;10.46;100.00;155153.16;4918547;29;20043;-72
2022/10/01 10:13:25;;;;;;;5.78;5.18;;;;;;;10.80;100.00;155239.13;4919351;29;20032;-72
2022/10/01 10:15:57;;;;;;;6.00;5.40;;;;;;;11.14;100.00;155323.81;4916645;29;20039;-72
2022/10/01 10:18:35;;;;;;;6.53;4.70;;;;;;;11.28;100.00;155358.44;4903700;29;20043;-72
2022/10/01 10:21:13;;;;;;;6.13;4.93;;;;;;;11.35;100.00;155376.44;4920365;29;20040;-72
2022/10/01 10:23:51;;;;;;;6.25;4.93;;;;;;;11.41;100.00;155390.56;4923105;29;20043;-72
2022/10/01 10:26:37;;;;;;;6.85;4.38;;;;;;;11.46;100.00;155404.66;4899642;29;20036;-71
2022/10/01 10:29:06;;;;;;;5.70;4.20;;;;;;;11.54;100.00;155423.91;4911605;29;20051;-71
2022/10/01 10:31:43;;;;;;;7.55;4.30;;;;;;;11.68;100.00;155458.63;4915070;29;20055;-72
2022/10/01 10:34:16;;;;;;;6.05;3.97;;;;;;;11.76;100.00;155479.13;4919647;29;20062;-71
2022/10/01 10:36:44;;;;;;;8.57;4.68;;;;;;;11.81;100.00;155492.00;4913869;29;20126;-71
2022/10/01 10:39:24;;;;;;;6.40;4.10;;;;;;;11.75;100.00;155475.28;4911844;29;20044;-71
2022/10/01 10:41:51;;;;;;;4.28;3.88;;;;;;;11.83;100.00;155497.13;4927132;29;20107;-72
2022/10/01 10:44:23;;;;;;;10.63;4.35;;;;;;;11.87;100.00;155506.13;4899541;29;20135;-71
2022/10/01 10:46:52;;;;;;;9.90;4.03;;;;;;;12.00;100.00;155539.53;4910358;29;20040;-71
2022/10/01 10:49:18;;;;;;;6.20;3.45;;;;;;;12.17;100.00;155581.91;4900146;29;20044;-71
2022/10/01 10:51:52;;;;;;;5.05;3.55;;;;;;;12.32;100.00;155617.84;4897959;29;20100;-71
2022/10/01 10:54:22;;;;;;;5.15;3.65;;;;;;;12.46;100.00;155655.09;4912804;29;20040;-71
2022/10/01 10:56:58;;;;;;;12.75;3.97;;;;;;;12.86;100.00;155754.03;4883340;29;20040;-71
2022/10/01 10:59:24;;;;;;;6.97;3.30;;;;;;;13.11;100.00;155817.00;4900141;29;20376;-71
2022/10/01 11:01:51;;;;;;;8.60;2.92;;;;;;;13.23;100.00;155846.56;4907676;29;20046;-71
2022/10/01 11:04:36;;;;;;;6.05;3.22;;;;;;;13.19;100.00;155837.56;4924663;29;20372;-71
2022/10/01 11:07:03;;;;;;;9.45;3.05;;;;;;;13.24;100.00;155849.09;4905691;29;20056;-71
2022/10/01 11:09:51;;;;;;;6.90;2.78;;;;;;;13.22;100.00;155843.97;4915278;29;20040;-71
2022/10/01 11:12:30;;;;;;;5.35;2.45;;;;;;;13.14;100.00;155824.69;4913782;29;20509;-73
2022/10/01 11:15:12;;;;;;;8.10;3.05;;;;;;;13.58;100.00;155933.97;4917008;29;20187;-73
2022/10/01 11:17:50;;;;;;;7.70;3.05;;;;;;;13.96;100.00;156030.41;4901196;29;20449;-71
2022/10/01 11:20:32;;;;;;;7.28;3.08;;;;;;;14.33;100.00;156122.97;4910938;29;20032;-71
2022/10/01 11:23:19;;;;;;;8.35;2.47;;;;;;;14.62;100.00;156195.06;4938876;29;20060;-72
2022/10/01 11:26:02;;;;;;;8.88;2.67;;;;;;;14.81;100.00;156241.38;4895720;29;20511;-72
2022/10/01 11:28:31;;;;;;;7.30;2.40;;;;;;;15.10;100.00;156315.94;4896673;29;20123;-72
2022/10/01 11:31:18;;;;;;;10.07;2.40;;;;;;;15.36;100.00;156380.28;4880298;29;20052;-72
2022/10/01 11:34:03;;;;;;;9.43;2.08;;;;;;;15.52;100.00;156421.50;4902799;29;20072;-71
2022/10/01 11:36:54;;;;;;;7.75;2.22;;;;;;;15.77;100.00;156484.56;4907181;29;20147;-71
2022/10/01 11:39:24;;;;;;;9.25;1.98;;;;;;;15.90;100.00;156515.50;4912670;29;20512;-72
2022/10/01 11:41:58;;;;;;;4.97;1.60;;;;;;;15.88;100.00;156511.63;4911336;29;20044;-72